Time;durP1;ratioP1;P1;durP2;ratioP2;P2;SDS_P1;SDS_P2;PMS_P1;PMS_P2;Temp;Humidity;BMP_temperature;BMP_pressure;BME280_temperature;BME280_humidity;BME280_pressure;Samples;Min_cycle;Max_cycle;Signal;HPM_P1;HPM_P2
2023/04/15 00:06:10;;;;;;;7.43;3.77;;;;;;;9.08;76.49;100164.38;15423105;28;20054;-54
2023/04/15 00:13:43;;;;;;;7.00;3.08;;;;;;;9.18;75.69;100153.19;15436489;28;20117;-52
2023/04/15 00:21:17;;;;;;;8.38;3.95;;;;;;;9.52;75.39;100154.63;15429877;28;20257;-55
2023/04/15 00:28:50;;;;;;;10.15;3.38;;;;;;;9.46;75.19;100147.44;15443181;28;20093;-52
2023/04/15 00:36:25;;;;;;;;;;;;;;;9.55;74.90;100122.03;15450025;28;20042;-52
2023/04/15 00:43:58;;;;;;;5.18;3.28;;;;;;;9.13;76.38;100128.94;15441028;28;20349;-52
2023/04/15 00:51:34;;;;;;;4.27;2.43;;;;;;;9.33;75.10;100136.84;15444708;28;20042;-51
2023/04/15 00:59:08;;;;;;;7.35;3.88;;;;;;;9.31;75.84;100130.88;15435337;28;20042;-54
2023/04/15 01:06:42;;;;;;;8.07;4.85;;;;;;;9.28;76.32;100123.28;15453410;28;20042;-53
2023/04/15 01:14:16;;;;;;;9.25;4.60;;;;;;;9.08;76.73;100126.91;15440447;28;20074;-55
2023/04/15 01:21:51;;;;;;;8.95;5.25;;;;;;;8.87;77.76;100122.72;15428121;28;20392;-53
2023/04/15 01:29:26;;;;;;;13.35;4.15;;;;;;;8.85;77.57;100124.75;15428318;28;20069;-54
2023/04/15 01:36:59;;;;;;;12.75;5.95;;;;;;;9.42;75.12;100114.94;15437792;28;20042;-52
2023/04/15 01:44:33;;;;;;;9.73;5.90;;;;;;;9.45;75.36;100117.16;15431861;28;20222;-53
2023/04/15 01:52:06;;;;;;;9.30;5.88;;;;;;;9.23;75.80;100115.88;15476292;28;20306;-53
2023/04/15 01:59:41;;;;;;;;;;;;;;;9.47;75.05;100108.94;15455704;28;20117;-56
2023/04/15 02:07:14;;;;;;;11.95;5.38;;;;;;;8.99;76.46;100108.63;15445118;28;19925;-56
2023/04/15 02:14:48;;;;;;;12.98;6.60;;;;;;;8.96;76.84;100107.22;15445309;28;20039;-55
2023/04/15 02:22:22;;;;;;;15.73;6.45;;;;;;;8.98;77.34;100101.66;15472054;28;20056;-55
2023/04/15 02:29:56;;;;;;;10.80;6.10;;;;;;;8.84;77.67;100104.41;15438033;28;20453;-54
2023/04/15 02:37:29;;;;;;;21.45;6.82;;;;;;;8.95;77.05;100097.53;15455736;28;20054;-56
2023/04/15 02:45:06;;;;;;;14.27;5.97;;;;;;;9.15;76.46;100100.91;15439053;28;20313;-52
2023/04/15 02:52:41;;;;;;;14.48;7.07;;;;;;;9.25;76.04;100103.13;15449253;28;20049;-54
2023/04/15 03:00:35;;;;;;;19.37;7.10;;;;;;;9.23;76.33;100101.69;15439735;28;20082;-52
2023/04/15 03:08:08;;;;;;;11.80;5.63;;;;;;;9.18;76.52;100107.69;15435630;28;20074;-53
2023/04/15 03:15:42;;;;;;;11.13;7.47;;;;;;;9.08;77.39;100100.13;15427380;28;20053;-52
2023/04/15 03:23:16;;;;;;;9.30;5.60;;;;;;;8.87;77.71;100100.47;15426529;28;20476;-53
2023/04/15 03:30:51;;;;;;;12.40;5.70;;;;;;;8.78;78.66;100110.63;15454114;28;20042;-56
2023/04/15 03:38:24;;;;;;;15.15;8.07;;;;;;;8.86;78.07;100102.34;15441442;28;20397;-54
2023/04/15 03:45:58;;;;;;;11.57;5.03;;;;;;;8.56;79.03;100101.25;15448398;28;20408;-55
2023/04/15 03:53:31;;;;;;;14.15;8.23;;;;;;;8.94;77.94;100109.28;15457231;28;20043;-55
2023/04/15 04:01:05;;;;;;;6.33;4.60;;;;;;;8.55;79.68;100108.47;15448172;28;20035;-54
2023/04/15 04:08:38;;;;;;;9.00;6.47;;;;;;;9.08;78.19;100110.03;15461648;28;20074;-54
2023/04/15 04:16:12;;;;;;;9.17;5.83;;;;;;;8.82;79.24;100111.84;15439833;28;20129;-53
2023/04/15 04:23:45;;;;;;;12.57;5.70;;;;;;;8.87;78.49;100116.53;15430570;28;20139;-51
2023/04/15 04:31:20;;;;;;;15.67;8.03;;;;;;;9.53;76.67;100118.75;15431211;28;20414;-56
2023/04/15 04:38:53;;;;;;;15.40;5.45;;;;;;;9.52;76.29;100113.63;15423232;28;20047;-53
2023/04/15 04:46:27;;;;;;;11.57;4.72;;;;;;;9.65;75.89;100118.84;15487336;28;20097;-54
2023/04/15 04:54:00;;;;;;;14.52;6.10;;;;;;;9.76;75.81;100122.69;15490014;28;20082;-52
2023/04/15 05:01:35;;;;;;;17.55;7.20;;;;;;;9.84;75.58;100127.75;15488581;28;20066;-53
2023/04/15 05:09:08;;;;;;;11.25;5.53;;;;;;;9.80;76.01;100122.03;15432690;28;20493;-52
2023/04/15 05:16:42;;;;;;;12.87;4.77;;;;;;;9.59;76.78;100127.78;15426442;28;20051;-53
2023/04/15 05:24:15;;;;;;;12.30;5.55;;;;;;;9.45;77.85;100138.59;15436509;28;20051;-53
2023/04/15 05:31:50;;;;;;;11.50;4.78;;;;;;;9.25;78.79;100142.47;15445631;28;20047;-52
2023/04/15 05:39:22;;;;;;;7.03;4.50;;;;;;;9.43;78.50;100148.72;15459749;28;20047;-56
2023/04/15 05:46:57;;;;;;;10.07;4.63;;;;;;;9.26;79.13;100154.81;15468765;28;20050;-52
2023/04/15 05:54:30;;;;;;;11.55;4.05;;;;;;;9.28;79.13;100152.72;15491397;28;20074;-52
2023/04/15 06:02:05;;;;;;;11.75;4.60;;;;;;;9.62;77.77;100146.94;15472167;28;20058;-54
2023/04/15 06:09:38;;;;;;;6.00;3.63;;;;;;;9.51;78.24;100150.28;15450423;28;20054;-54
2023/04/15 06:17:13;;;;;;;8.17;4.13;;;;;;;9.64;78.16;100144.03;15430374;28;20659;-51
2023/04/15 06:24:46;;;;;;;7.95;5.10;;;;;;;9.93;76.40;100150.56;15428244;28;20619;-53
2023/04/15 06:32:20;;;;;;;10.80;3.03;;;;;;;9.80;76.16;100151.53;15438935;28;20492;-55
2023/04/15 06:39:53;;;;;;;4.88;2.80;;;;;;;9.93;76.37;100167.50;15435518;28;20031;-53
2023/04/15 06:47:28;;;;;;;9.63;4.47;;;;;;;10.45;74.76;100184.13;15432193;28;20130;-53
2023/04/15 06:55:01;;;;;;;3.08;2.35;;;;;;;10.22;75.42;100182.06;15457151;28;20157;-52
2023/04/15 07:02:35;;;;;;;4.43;3.15;;;;;;;10.60;73.36;100188.31;15431359;28;20047;-52
2023/04/15 07:10:10;;;;;;;4.38;3.35;;;;;;;10.65;73.35;100185.78;15434198;28;20038;-55
2023/04/15 07:17:45;;;;;;;3.97;2.70;;;;;;;10.15;74.07;100197.38;15435590;28;20042;-55
2023/04/15 07:25:19;;;;;;;16.20;3.83;;;;;;;10.08;73.68;100210.06;15438120;28;20511;-54
2023/04/15 07:32:54;;;;;;;3.90;2.75;;;;;;;10.15;73.54;100212.66;15428050;28;20038;-52
2023/04/15 07:40:27;;;;;;;5.43;3.35;;;;;;;10.11;73.94;100216.81;15437780;28;20042;-53
2023/04/15 07:48:01;;;;;;;5.13;2.78;;;;;;;10.08;74.40;100212.72;15431767;28;20484;-52
2023/04/15 07:55:34;;;;;;;9.30;3.78;;;;;;;10.27;73.64;100215.50;15436897;28;20401;-52
2023/04/15 08:03:08;;;;;;;10.93;4.70;;;;;;;10.01;74.03;100224.53;15421576;28;20098;-54
2023/04/15 08:10:41;;;;;;;7.72;2.65;;;;;;;9.81;75.15;100230.06;15421710;28;20518;-53
2023/04/15 08:18:16;;;;;;;6.20;2.33;;;;;;;9.82;74.49;100234.38;15436056;28;20129;-53
2023/04/15 08:25:48;;;;;;;7.47;3.47;;;;;;;9.76;75.09;100246.00;15424072;28;20047;-55
2023/04/15 08:33:23;;;;;;;5.50;3.27;;;;;;;9.80;74.87;100245.34;15425178;28;20138;-54
2023/04/15 08:41:00;;;;;;;4.93;3.13;;;;;;;9.67;74.44;100240.88;15435190;28;20117;-55
2023/04/15 08:48:39;;;;;;;5.78;3.25;;;;;;;9.63;74.84;100254.94;15408708;28;20047;-54
2023/04/15 08:56:14;;;;;;;4.60;2.53;;;;;;;9.93;74.07;100263.16;15415154;28;20051;-52
2023/04/15 09:03:48;;;;;;;6.20;3.45;;;;;;;9.94;73.97;100268.31;15412175;28;20039;-52
2023/04/15 09:11:22;;;;;;;6.65;4.20;;;;;;;10.25;73.91;100272.00;15444275;28;20035;-54
2023/04/15 09:18:56;;;;;;;4.60;3.15;;;;;;;9.91;74.69;100279.47;15436738;28;20047;-56
2023/04/15 09:26:34;;;;;;;5.40;3.08;;;;;;;9.87;74.59;100275.56;15443242;28;20044;-54
2023/04/15 09:34:08;;;;;;;7.80;4.28;;;;;;;10.06;74.08;100289.88;15442204;28;20047;-52
2023/04/15 09:41:42;;;;;;;4.95;2.17;;;;;;;9.76;75.48;100297.72;15451431;28;20074;-55
2023/04/15 09:49:17;;;;;;;3.30;1.98;;;;;;;9.71;75.87;100292.19;15443072;28;20043;-55
2023/04/15 09:56:50;;;;;;;3.78;2.17;;;;;;;9.82;76.46;100310.25;15425809;28;20086;-55
2023/04/15 10:04:26;;;;;;;4.47;2.93;;;;;;;9.80;77.63;100319.56;15435697;28;20047;-55
2023/04/15 10:11:59;;;;;;;4.75;2.75;;;;;;;9.93;76.76;100323.00;15440614;28;20062;-56
2023/04/15 10:19:37;;;;;;;5.47;3.05;;;;;;;10.12;76.99;100326.56;15441116;28;20047;-55
2023/04/15 10:27:11;;;;;;;9.32;4.47;;;;;;;10.28;76.21;100325.25;15447574;28;20129;-53
2023/04/15 10:34:47;;;;;;;7.32;3.03;;;;;;;9.75;78.62;100338.16;15436346;28;20094;-55
2023/04/15 10:42:21;;;;;;;6.55;3.63;;;;;;;10.00;77.64;100330.16;15439001;28;20488;-52
2023/04/15 10:50:01;;;;;;;6.00;3.17;;;;;;;10.03;78.19;100340.47;15446505;28;20054;-54
2023/04/15 10:57:39;;;;;;;5.57;2.85;;;;;;;10.21;77.74;100344.03;15438792;28;20066;-52
2023/04/15 11:05:16;;;;;;;7.07;3.13;;;;;;;10.39;77.44;100351.34;15452945;28;20486;-55
2023/04/15 11:12:52;;;;;;;4.57;2.72;;;;;;;10.05;78.36;100344.56;15444245;28;20142;-56
2023/04/15 11:20:27;;;;;;;2.85;2.28;;;;;;;10.07;78.76;100365.78;15460520;28;20048;-57
2023/04/15 11:28:02;;;;;;;6.07;2.92;;;;;;;9.93;79.38;100373.94;15454628;28;20046;-53
2023/04/15 11:35:36;;;;;;;8.50;2.75;;;;;;;9.85;79.69;100386.75;15433943;28;20602;-55
2023/04/15 11:43:10;;;;;;;5.68;2.70;;;;;;;9.82;79.90;100384.50;15436831;28;20042;-51
2023/04/15 11:50:45;;;;;;;3.80;2.65;;;;;;;9.98;79.61;100389.38;15451039;28;20415;-53
2023/04/15 11:58:20;;;;;;;4.38;2.47;;;;;;;10.05;79.62;100403.53;15455741;28;20046;-55
2023/04/15 12:06:19;;;;;;;6.18;3.17;;;;;;;10.27;79.28;100411.31;15426684;28;20046;-50
2023/04/15 12:13:55;;;;;;;4.68;3.08;;;;;;;10.27;79.37;100414.81;15435941;28;20078;-51
2023/04/15 12:21:34;;;;;;;7.40;2.90;;;;;;;10.42;79.27;100417.19;15455752;28;20129;-53
2023/04/15 12:29:08;;;;;;;5.85;2.72;;;;;;;10.25;79.31;100426.78;15445707;28;20134;-52
2023/04/15 12:36:42;;;;;;;;;;;;;;;10.14;80.08;100431.75;15455903;28;20050;-57
2023/04/15 12:44:15;;;;;;;3.40;2.13;;;;;;;10.82;78.59;100439.19;15442033;28;20347;-57
2023/04/15 12:51:50;;;;;;;3.00;1.47;;;;;;;11.07;78.07;100441.84;15443203;28;20559;-59
2023/04/15 12:59:23;;;;;;;3.80;2.20;;;;;;;10.97;78.42;100450.41;15414285;28;20134;-56
2023/04/15 13:06:57;;;;;;;8.45;2.35;;;;;;;10.55;78.71;100456.53;15445578;28;20371;-51
2023/04/15 13:14:30;;;;;;;3.22;1.77;;;;;;;10.62;78.71;100462.66;15409524;28;20145;-55
2023/04/15 13:22:05;;;;;;;3.15;1.90;;;;;;;10.72;77.55;100466.53;15440284;28;20141;-53
2023/04/15 13:29:39;;;;;;;3.00;1.90;;;;;;;11.07;77.88;100468.72;15429664;28;20043;-52
2023/04/15 13:37:13;;;;;;;3.30;2.10;;;;;;;11.21;77.89;100472.91;15376190;28;20250;-51
2023/04/15 13:44:46;;;;;;;4.78;2.25;;;;;;;11.40;76.69;100475.63;15374805;28;20050;-51
2023/04/15 13:52:20;;;;;;;5.32;1.77;;;;;;;10.92;77.94;100487.03;15385788;28;20416;-53
2023/04/15 13:59:53;;;;;;;3.83;1.92;;;;;;;11.35;76.41;100497.78;15403827;28;20057;-54
2023/04/15 14:07:29;;;;;;;5.00;2.23;;;;;;;11.01;77.57;100503.69;15432854;28;20034;-53
2023/04/15 14:15:02;;;;;;;2.55;2.22;;;;;;;11.11;77.79;100509.38;15434768;28;20393;-52
2023/04/15 14:22:37;;;;;;;2.77;2.00;;;;;;;10.90;78.32;100516.75;15467037;28;20050;-55
2023/04/15 14:30:10;;;;;;;4.93;2.10;;;;;;;11.07;77.54;100526.97;15472691;28;20337;-55
2023/04/15 14:37:45;;;;;;;4.93;2.47;;;;;;;11.72;75.89;100530.94;15483064;28;20049;-56
2023/04/15 14:45:17;;;;;;;2.42;1.85;;;;;;;11.17;77.99;100541.56;15494756;28;20129;-55
2023/04/15 14:52:52;;;;;;;4.97;1.93;;;;;;;10.92;78.26;100556.84;15476612;28;20046;-53
2023/04/15 15:00:25;;;;;;;5.22;2.78;;;;;;;10.60;78.91;100559.50;15473141;28;20957;-51
2023/04/15 15:08:00;;;;;;;4.25;2.38;;;;;;;10.67;78.87;100565.63;15445984;28;20046;-53
2023/04/15 15:15:33;;;;;;;5.45;2.40;;;;;;;10.70;78.96;100572.44;15449532;28;20077;-56
2023/04/15 15:23:08;;;;;;;2.83;1.75;;;;;;;10.84;78.35;100576.72;15439518;28;20039;-57
2023/04/15 15:30:41;;;;;;;3.60;1.92;;;;;;;11.47;76.46;100583.88;15435732;28;20043;-56
2023/04/15 15:38:15;;;;;;;2.43;1.80;;;;;;;10.79;78.22;100598.00;15455317;28;20097;-55
2023/04/15 15:45:50;;;;;;;4.32;2.38;;;;;;;11.51;76.22;100609.28;15439340;28;20310;-54
2023/04/15 15:53:24;;;;;;;5.60;3.35;;;;;;;11.57;75.42;100611.13;15419846;28;20130;-51
2023/04/15 16:00:57;;;;;;;5.25;2.95;;;;;;;11.43;76.39;100612.25;15419989;28;20054;-53
2023/04/15 16:08:32;;;;;;;4.75;2.30;;;;;;;11.58;75.38;100615.44;15453735;28;20097;-57
2023/04/15 16:16:05;;;;;;;3.63;1.83;;;;;;;11.40;76.44;100623.44;15454819;28;20568;-53
2023/04/15 16:23:39;;;;;;;5.55;1.77;;;;;;;11.19;77.38;100629.97;15443216;28;20043;-54
2023/04/15 16:31:14;;;;;;;5.38;1.98;;;;;;;11.02;77.22;100643.13;15442255;28;20458;-54
2023/04/15 16:38:49;;;;;;;3.15;1.80;;;;;;;11.26;76.33;100641.53;15464055;28;20139;-54
2023/04/15 16:46:23;;;;;;;4.68;2.08;;;;;;;10.91;77.59;100662.59;15471614;28;20054;-53
2023/04/15 16:53:57;;;;;;;1.53;1.27;;;;;;;10.87;77.10;100658.72;15428223;28;20050;-52
2023/04/15 17:01:30;;;;;;;4.45;1.88;;;;;;;10.64;77.88;100624.31;15430926;28;20815;-55
2023/04/15 17:09:04;;;;;;;4.33;1.97;;;;;;;11.06;76.70;100630.09;15462803;28;20051;-54
2023/04/15 17:16:37;;;;;;;2.30;1.40;;;;;;;11.53;74.62;100639.47;15437141;28;20054;-56
2023/04/15 17:24:11;;;;;;;3.03;1.90;;;;;;;10.89;77.24;100649.38;15437209;28;20046;-52
2023/04/15 17:31:45;;;;;;;3.15;2.13;;;;;;;11.33;75.44;100660.28;15469850;28;20042;-56
2023/04/15 17:39:19;;;;;;;3.80;2.57;;;;;;;11.46;75.00;100665.56;15443325;28;20540;-52
2023/04/15 17:46:52;;;;;;;3.50;1.92;;;;;;;11.13;76.81;100677.34;15458790;28;20337;-56
2023/04/15 17:54:26;;;;;;;5.73;3.07;;;;;;;11.42;75.54;100685.84;15438216;28;20055;-53
2023/04/15 18:01:59;;;;;;;3.88;2.50;;;;;;;11.14;76.19;100700.47;15417413;28;20094;-51
2023/04/15 18:09:33;;;;;;;3.03;1.90;;;;;;;11.27;75.30;100694.22;15441664;28;20055;-52
2023/04/15 18:17:07;;;;;;;4.15;2.67;;;;;;;11.30;75.50;100717.16;15433589;28;20051;-56
2023/04/15 18:24:42;;;;;;;1.88;1.67;;;;;;;11.28;75.79;100720.03;15438150;28;20045;-53
2023/04/15 18:32:15;;;;;;;2.70;2.00;;;;;;;11.37;75.05;100736.72;15446118;28;20043;-54
2023/04/15 18:39:49;;;;;;;6.72;2.78;;;;;;;11.58;74.32;100751.72;15432688;28;20043;-54
2023/04/15 18:47:22;;;;;;;5.30;2.95;;;;;;;11.16;75.39;100760.22;15435274;28;20053;-53
2023/04/15 18:54:56;;;;;;;4.15;2.70;;;;;;;11.38;75.38;100774.16;15445408;28;20058;-55
2023/04/15 19:02:29;;;;;;;3.60;2.42;;;;;;;11.55;74.40;100774.47;15458148;28;20053;-52
2023/04/15 19:10:04;;;;;;;10.27;3.92;;;;;;;11.56;74.34;100770.72;15450245;28;20046;-51
2023/04/15 19:17:37;;;;;;;5.38;3.20;;;;;;;11.40;75.01;100798.13;15456854;28;20701;-54
2023/04/15 19:25:12;;;;;;;8.00;2.00;;;;;;;11.49;74.56;100802.22;15452270;28;20047;-55
2023/04/15 19:32:45;;;;;;;5.15;3.50;;;;;;;11.27;75.54;100806.25;15459820;28;20526;-51
2023/04/15 19:40:19;;;;;;;7.37;4.00;;;;;;;11.11;76.04;100810.25;15446949;28;20040;-54
2023/04/15 19:47:53;;;;;;;4.95;3.83;;;;;;;11.27;75.56;100817.00;15453561;28;20333;-56
2023/04/15 19:55:28;;;;;;;3.72;3.05;;;;;;;11.14;76.03;100816.00;15468398;28;20055;-54
2023/04/15 20:03:01;;;;;;;4.35;2.80;;;;;;;11.35;75.51;100820.28;15444918;28;20566;-58
2023/04/15 20:10:36;;;;;;;6.93;3.75;;;;;;;11.14;76.28;100824.06;15473672;28;20519;-54
2023/04/15 20:18:09;;;;;;;3.67;2.67;;;;;;;10.54;78.37;100830.59;15458132;28;20047;-55
2023/04/15 20:25:44;;;;;;;4.93;1.83;;;;;;;10.64;78.38;100831.84;15492791;28;20093;-58
2023/04/15 20:33:17;;;;;;;6.15;2.22;;;;;;;10.72;78.02;100834.31;15451833;28;20101;-55
2023/04/15 20:40:51;;;;;;;5.53;2.30;;;;;;;10.37;79.42;100840.94;15494051;28;20092;-54
2023/04/15 20:48:25;;;;;;;5.65;3.72;;;;;;;10.62;78.68;100836.56;15447687;28;20817;-58
2023/04/15 20:55:59;;;;;;;7.95;3.97;;;;;;;10.09;80.80;100843.75;15478797;28;20073;-55
2023/04/15 21:03:32;;;;;;;5.55;3.55;;;;;;;10.31;79.82;100847.13;15449339;28;20077;-54
2023/04/15 21:11:07;;;;;;;8.23;4.43;;;;;;;10.80;78.21;100848.53;15459201;28;20168;-54
2023/04/15 21:18:40;;;;;;;9.38;4.43;;;;;;;10.59;78.68;100863.84;15448388;28;20039;-53
2023/04/15 21:26:15;;;;;;;7.80;3.10;;;;;;;10.31;79.47;100873.94;15447790;28;20058;-56
2023/04/15 21:33:48;;;;;;;5.07;3.75;;;;;;;10.26;79.90;100879.94;15446311;28;20043;-56
2023/04/15 21:41:22;;;;;;;8.87;3.60;;;;;;;10.80;78.06;100888.81;15446448;28;20062;-53
2023/04/15 21:48:55;;;;;;;6.10;3.58;;;;;;;10.34;79.18;100897.66;15458929;28;20046;-56
2023/04/15 21:56:29;;;;;;;8.35;4.03;;;;;;;10.64;78.28;100904.31;15477571;28;20043;-53
2023/04/15 22:04:02;;;;;;;7.63;3.45;;;;;;;10.11;80.01;100906.88;15460279;28;20050;-54
2023/04/15 22:11:36;;;;;;;4.05;2.47;;;;;;;9.90;80.94;100913.22;15473790;28;20054;-56
2023/04/15 22:19:10;;;;;;;12.68;4.60;;;;;;;10.30;79.43;100916.03;15455551;28;20047;-58
2023/04/15 22:26:45;;;;;;;5.57;3.47;;;;;;;10.08;79.80;100934.13;15475659;28;20140;-55
2023/04/15 22:34:20;;;;;;;10.70;4.10;;;;;;;10.02;80.17;100939.44;15457439;28;20074;-55
2023/04/15 22:41:55;;;;;;;8.43;3.22;;;;;;;9.95;80.44;100951.00;15472399;28;20513;-53
2023/04/15 22:49:28;;;;;;;8.10;3.78;;;;;;;10.25;79.96;100952.56;15456193;28;20050;-52
2023/04/15 22:57:03;;;;;;;9.03;4.03;;;;;;;10.56;78.45;100960.88;15493221;28;20424;-54
2023/04/15 23:04:35;;;;;;;5.45;3.70;;;;;;;10.15;79.74;100964.47;15494669;28;20046;-54
2023/04/15 23:12:10;;;;;;;;;;;;;;;10.36;79.24;100971.56;15483772;28;20051;-56
2023/04/15 23:19:43;;;;;;;9.77;3.83;;;;;;;10.34;78.92;100970.13;15439561;28;20045;-54
2023/04/15 23:27:19;;;;;;;7.15;4.55;;;;;;;10.70;77.53;100978.66;15462795;28;20388;-52
2023/04/15 23:34:52;;;;;;;12.05;4.18;;;;;;;10.86;76.41;100984.63;15490589;28;20045;-51
2023/04/15 23:42:27;;;;;;;11.05;4.80;;;;;;;10.71;77.40;100992.88;15501560;28;20048;-49
2023/04/15 23:50:00;;;;;;;9.82;3.97;;;;;;;10.47;78.43;100988.94;15445064;28;20368;-50
2023/04/15 23:57:34;;;;;;;6.27;4.10;;;;;;;9.93;80.27;100989.75;15488966;28;20046;-53
